sensor_id;sensor_type;location;lat;lon;timestamp;P1;durP1;ratioP1;P2;durP2;ratioP2
78901;SDS011;70441;44.758;37.686;2023-07-13T00:00:58;7.53;;;4.13;;
78901;SDS011;70441;44.758;37.686;2023-07-13T00:01:59;6.47;;;3.88;;
78901;SDS011;70441;44.758;37.686;2023-07-13T00:03:01;8.50;;;4.88;;
78901;SDS011;70441;44.758;37.686;2023-07-13T00:04:03;8.07;;;3.85;;
78901;SDS011;70441;44.758;37.686;2023-07-13T00:05:04;6.88;;;4.28;;
78901;SDS011;70441;44.758;37.686;2023-07-13T00:06:07;7.75;;;4.03;;
78901;SDS011;70441;44.758;37.686;2023-07-13T00:07:09;8.25;;;4.10;;
78901;SDS011;70441;44.758;37.686;2023-07-13T00:08:10;8.07;;;4.43;;
78901;SDS011;70441;44.758;37.686;2023-07-13T00:09:15;7.60;;;4.38;;
78901;SDS011;70441;44.758;37.686;2023-07-13T00:10:17;8.07;;;4.05;;
78901;SDS011;70441;44.758;37.686;2023-07-13T00:11:19;10.00;;;4.43;;
78901;SDS011;70441;44.758;37.686;2023-07-13T00:12:30;8.82;;;4.10;;
78901;SDS011;70441;44.758;37.686;2023-07-13T00:13:33;7.68;;;4.22;;
78901;SDS011;70441;44.758;37.686;2023-07-13T00:14:34;9.10;;;4.32;;
78901;SDS011;70441;44.758;37.686;2023-07-13T00:15:35;7.07;;;4.30;;
78901;SDS011;70441;44.758;37.686;2023-07-13T00:16:38;7.25;;;4.10;;
78901;SDS011;70441;44.758;37.686;2023-07-13T00:17:44;9.40;;;4.15;;
78901;SDS011;70441;44.758;37.686;2023-07-13T00:18:45;11.30;;;4.88;;
78901;SDS011;70441;44.758;37.686;2023-07-13T00:19:47;8.70;;;4.35;;
78901;SDS011;70441;44.758;37.686;2023-07-13T00:20:49;7.60;;;4.10;;
78901;SDS011;70441;44.758;37.686;2023-07-13T00:21:51;6.97;;;4.00;;
78901;SDS011;70441;44.758;37.686;2023-07-13T00:23:01;10.75;;;4.57;;
78901;SDS011;70441;44.758;37.686;2023-07-13T00:24:03;8.05;;;4.70;;
78901;SDS011;70441;44.758;37.686;2023-07-13T00:25:10;7.72;;;5.18;;
78901;SDS011;70441;44.758;37.686;2023-07-13T00:26:12;8.00;;;4.55;;
78901;SDS011;70441;44.758;37.686;2023-07-13T00:27:14;9.70;;;4.20;;
78901;SDS011;70441;44.758;37.686;2023-07-13T00:28:15;7.95;;;4.65;;
78901;SDS011;70441;44.758;37.686;2023-07-13T00:29:23;9.55;;;4.72;;
78901;SDS011;70441;44.758;37.686;2023-07-13T00:30:25;8.55;;;5.10;;
78901;SDS011;70441;44.758;37.686;2023-07-13T00:31:27;7.63;;;4.72;;
78901;SDS011;70441;44.758;37.686;2023-07-13T00:32:28;9.02;;;4.95;;
78901;SDS011;70441;44.758;37.686;2023-07-13T00:33:30;8.05;;;4.53;;
78901;SDS011;70441;44.758;37.686;2023-07-13T00:34:37;8.25;;;4.93;;
78901;SDS011;70441;44.758;37.686;2023-07-13T00:35:39;9.93;;;4.95;;
78901;SDS011;70441;44.758;37.686;2023-07-13T00:36:42;10.02;;;5.43;;
78901;SDS011;70441;44.758;37.686;2023-07-13T00:37:43;9.23;;;4.85;;
78901;SDS011;70441;44.758;37.686;2023-07-13T00:38:44;7.78;;;4.47;;
78901;SDS011;70441;44.758;37.686;2023-07-13T00:39:51;9.25;;;4.60;;
78901;SDS011;70441;44.758;37.686;2023-07-13T00:40:53;10.20;;;5.22;;
78901;SDS011;70441;44.758;37.686;2023-07-13T00:41:54;8.85;;;5.07;;
78901;SDS011;70441;44.758;37.686;2023-07-13T00:42:56;7.82;;;4.88;;
78901;SDS011;70441;44.758;37.686;2023-07-13T00:43:59;11.73;;;5.60;;
78901;SDS011;70441;44.758;37.686;2023-07-13T00:45:06;10.32;;;5.60;;
78901;SDS011;70441;44.758;37.686;2023-07-13T00:46:18;9.02;;;5.88;;
78901;SDS011;70441;44.758;37.686;2023-07-13T00:47:27;9.65;;;5.35;;
78901;SDS011;70441;44.758;37.686;2023-07-13T00:48:34;17.65;;;10.23;;
78901;SDS011;70441;44.758;37.686;2023-07-13T00:49:38;25.52;;;13.65;;
78901;SDS011;70441;44.758;37.686;2023-07-13T00:50:39;27.63;;;15.55;;
78901;SDS011;70441;44.758;37.686;2023-07-13T00:51:46;22.83;;;13.25;;
78901;SDS011;70441;44.758;37.686;2023-07-13T00:54:05;28.48;;;13.80;;
78901;SDS011;70441;44.758;37.686;2023-07-13T00:55:16;27.88;;;12.60;;
78901;SDS011;70441;44.758;37.686;2023-07-13T00:56:18;22.70;;;11.73;;
78901;SDS011;70441;44.758;37.686;2023-07-13T00:57:20;19.13;;;10.32;;
78901;SDS011;70441;44.758;37.686;2023-07-13T00:58:23;15.65;;;8.85;;
78901;SDS011;70441;44.758;37.686;2023-07-13T00:59:25;16.35;;;6.78;;
78901;SDS011;70441;44.758;37.686;2023-07-13T01:00:27;11.18;;;5.82;;
78901;SDS011;70441;44.758;37.686;2023-07-13T01:01:32;13.60;;;6.65;;
78901;SDS011;70441;44.758;37.686;2023-07-13T01:02:40;12.30;;;6.00;;
78901;SDS011;70441;44.758;37.686;2023-07-13T01:03:43;10.45;;;5.55;;
78901;SDS011;70441;44.758;37.686;2023-07-13T01:04:45;12.45;;;5.80;;
78901;SDS011;70441;44.758;37.686;2023-07-13T01:05:47;9.98;;;5.30;;
78901;SDS011;70441;44.758;37.686;2023-07-13T01:06:50;10.48;;;5.45;;
78901;SDS011;70441;44.758;37.686;2023-07-13T01:07:51;9.45;;;5.22;;
78901;SDS011;70441;44.758;37.686;2023-07-13T01:08:53;10.13;;;5.20;;
78901;SDS011;70441;44.758;37.686;2023-07-13T01:09:58;11.20;;;5.30;;
78901;SDS011;70441;44.758;37.686;2023-07-13T01:10:59;9.38;;;5.40;;
78901;SDS011;70441;44.758;37.686;2023-07-13T01:12:00;8.57;;;4.88;;
78901;SDS011;70441;44.758;37.686;2023-07-13T01:13:02;9.60;;;5.68;;
78901;SDS011;70441;44.758;37.686;2023-07-13T01:15:05;9.68;;;5.53;;
78901;SDS011;70441;44.758;37.686;2023-07-13T01:16:34;9.57;;;5.53;;
78901;SDS011;70441;44.758;37.686;2023-07-13T01:17:36;9.40;;;5.90;;
78901;SDS011;70441;44.758;37.686;2023-07-13T01:18:38;9.52;;;5.50;;
78901;SDS011;70441;44.758;37.686;2023-07-13T01:19:40;9.48;;;6.30;;
78901;SDS011;70441;44.758;37.686;2023-07-13T01:20:50;10.35;;;5.88;;
78901;SDS011;70441;44.758;37.686;2023-07-13T01:21:55;9.70;;;5.85;;
78901;SDS011;70441;44.758;37.686;2023-07-13T01:22:56;9.73;;;5.50;;
78901;SDS011;70441;44.758;37.686;2023-07-13T01:23:59;12.48;;;6.75;;
78901;SDS011;70441;44.758;37.686;2023-07-13T01:25:02;15.02;;;6.60;;
78901;SDS011;70441;44.758;37.686;2023-07-13T01:27:12;13.98;;;6.10;;
78901;SDS011;70441;44.758;37.686;2023-07-13T01:28:15;11.50;;;6.78;;
78901;SDS011;70441;44.758;37.686;2023-07-13T01:29:17;10.05;;;5.80;;
78901;SDS011;70441;44.758;37.686;2023-07-13T01:30:18;11.57;;;6.25;;
78901;SDS011;70441;44.758;37.686;2023-07-13T01:31:20;12.38;;;6.78;;
78901;SDS011;70441;44.758;37.686;2023-07-13T01:32:22;10.32;;;5.55;;
78901;SDS011;70441;44.758;37.686;2023-07-13T01:33:27;10.68;;;5.65;;
78901;SDS011;70441;44.758;37.686;2023-07-13T01:34:30;11.35;;;5.82;;
78901;SDS011;70441;44.758;37.686;2023-07-13T01:35:32;8.32;;;5.60;;
78901;SDS011;70441;44.758;37.686;2023-07-13T01:36:33;12.60;;;6.25;;
78901;SDS011;70441;44.758;37.686;2023-07-13T01:37:35;10.82;;;6.13;;
78901;SDS011;70441;44.758;37.686;2023-07-13T01:38:36;9.98;;;5.95;;
78901;SDS011;70441;44.758;37.686;2023-07-13T01:39:38;11.32;;;5.85;;
78901;SDS011;70441;44.758;37.686;2023-07-13T01:40:45;9.70;;;6.65;;
78901;SDS011;70441;44.758;37.686;2023-07-13T01:41:46;9.02;;;6.32;;
78901;SDS011;70441;44.758;37.686;2023-07-13T01:42:47;9.68;;;6.05;;
78901;SDS011;70441;44.758;37.686;2023-07-13T01:43:54;9.73;;;5.78;;
78901;SDS011;70441;44.758;37.686;2023-07-13T01:44:55;11.85;;;6.78;;
78901;SDS011;70441;44.758;37.686;2023-07-13T01:45:57;10.95;;;6.60;;
78901;SDS011;70441;44.758;37.686;2023-07-13T01:46:58;10.82;;;6.90;;
78901;SDS011;70441;44.758;37.686;2023-07-13T01:47:59;14.75;;;7.13;;
78901;SDS011;70441;44.758;37.686;2023-07-13T01:49:00;11.38;;;6.63;;
78901;SDS011;70441;44.758;37.686;2023-07-13T01:50:03;11.13;;;6.68;;
78901;SDS011;70441;44.758;37.686;2023-07-13T01:51:05;12.45;;;6.38;;
78901;SDS011;70441;44.758;37.686;2023-07-13T01:52:06;8.68;;;6.20;;
78901;SDS011;70441;44.758;37.686;2023-07-13T01:53:08;14.55;;;6.63;;
78901;SDS011;70441;44.758;37.686;2023-07-13T01:54:09;9.63;;;6.32;;
78901;SDS011;70441;44.758;37.686;2023-07-13T01:55:10;10.65;;;6.53;;
78901;SDS011;70441;44.758;37.686;2023-07-13T01:56:12;11.88;;;6.93;;
78901;SDS011;70441;44.758;37.686;2023-07-13T01:57:13;12.30;;;6.43;;
78901;SDS011;70441;44.758;37.686;2023-07-13T01:58:14;15.38;;;6.60;;
78901;SDS011;70441;44.758;37.686;2023-07-13T01:59:21;15.77;;;6.32;;
78901;SDS011;70441;44.758;37.686;2023-07-13T02:00:22;14.45;;;6.38;;
78901;SDS011;70441;44.758;37.686;2023-07-13T02:01:23;12.20;;;6.55;;
78901;SDS011;70441;44.758;37.686;2023-07-13T02:02:30;12.45;;;6.72;;
78901;SDS011;70441;44.758;37.686;2023-07-13T02:03:32;12.38;;;6.57;;
78901;SDS011;70441;44.758;37.686;2023-07-13T02:04:33;13.73;;;6.97;;
78901;SDS011;70441;44.758;37.686;2023-07-13T02:05:34;13.20;;;6.80;;
78901;SDS011;70441;44.758;37.686;2023-07-13T02:07:38;11.93;;;6.07;;
78901;SDS011;70441;44.758;37.686;2023-07-13T02:08:40;10.90;;;6.90;;
78901;SDS011;70441;44.758;37.686;2023-07-13T02:09:43;9.38;;;6.85;;
78901;SDS011;70441;44.758;37.686;2023-07-13T02:10:44;11.90;;;6.65;;
78901;SDS011;70441;44.758;37.686;2023-07-13T02:11:45;12.85;;;7.05;;
78901;SDS011;70441;44.758;37.686;2023-07-13T02:12:48;10.35;;;6.97;;
78901;SDS011;70441;44.758;37.686;2023-07-13T02:13:51;12.43;;;7.05;;
78901;SDS011;70441;44.758;37.686;2023-07-13T02:14:52;10.73;;;7.60;;
78901;SDS011;70441;44.758;37.686;2023-07-13T02:15:54;12.85;;;7.18;;
78901;SDS011;70441;44.758;37.686;2023-07-13T02:17:00;17.67;;;8.13;;
78901;SDS011;70441;44.758;37.686;2023-07-13T02:18:02;12.57;;;7.85;;
78901;SDS011;70441;44.758;37.686;2023-07-13T02:20:07;11.52;;;8.23;;
78901;SDS011;70441;44.758;37.686;2023-07-13T02:21:08;12.98;;;8.35;;
78901;SDS011;70441;44.758;37.686;2023-07-13T02:22:10;13.00;;;8.07;;
78901;SDS011;70441;44.758;37.686;2023-07-13T02:23:11;12.07;;;8.50;;
78901;SDS011;70441;44.758;37.686;2023-07-13T02:24:13;13.27;;;8.80;;
78901;SDS011;70441;44.758;37.686;2023-07-13T02:25:18;13.23;;;8.88;;
78901;SDS011;70441;44.758;37.686;2023-07-13T02:26:19;11.25;;;7.95;;
78901;SDS011;70441;44.758;37.686;2023-07-13T02:27:21;11.70;;;7.30;;
78901;SDS011;70441;44.758;37.686;2023-07-13T02:28:24;11.23;;;7.40;;
78901;SDS011;70441;44.758;37.686;2023-07-13T02:29:26;14.27;;;7.68;;
78901;SDS011;70441;44.758;37.686;2023-07-13T02:30:27;12.00;;;8.20;;
78901;SDS011;70441;44.758;37.686;2023-07-13T02:31:30;13.00;;;7.45;;
78901;SDS011;70441;44.758;37.686;2023-07-13T02:32:36;11.77;;;7.70;;
78901;SDS011;70441;44.758;37.686;2023-07-13T02:33:38;12.80;;;8.10;;
78901;SDS011;70441;44.758;37.686;2023-07-13T02:34:40;14.07;;;9.00;;
78901;SDS011;70441;44.758;37.686;2023-07-13T02:35:42;13.80;;;8.23;;
78901;SDS011;70441;44.758;37.686;2023-07-13T02:36:49;19.13;;;7.85;;
78901;SDS011;70441;44.758;37.686;2023-07-13T02:37:50;15.68;;;8.18;;
78901;SDS011;70441;44.758;37.686;2023-07-13T02:38:51;17.73;;;8.15;;
78901;SDS011;70441;44.758;37.686;2023-07-13T02:39:52;19.17;;;7.85;;
78901;SDS011;70441;44.758;37.686;2023-07-13T02:41:00;14.82;;;8.10;;
78901;SDS011;70441;44.758;37.686;2023-07-13T02:42:02;12.75;;;7.57;;
78901;SDS011;70441;44.758;37.686;2023-07-13T02:43:04;18.50;;;8.23;;
78901;SDS011;70441;44.758;37.686;2023-07-13T02:45:09;11.38;;;7.40;;
78901;SDS011;70441;44.758;37.686;2023-07-13T02:46:10;16.27;;;8.50;;
78901;SDS011;70441;44.758;37.686;2023-07-13T02:47:12;19.50;;;7.88;;
78901;SDS011;70441;44.758;37.686;2023-07-13T02:48:14;13.40;;;7.45;;
78901;SDS011;70441;44.758;37.686;2023-07-13T02:49:15;20.38;;;7.95;;
78901;SDS011;70441;44.758;37.686;2023-07-13T02:50:17;38.65;;;9.23;;
78901;SDS011;70441;44.758;37.686;2023-07-13T02:51:23;28.23;;;8.55;;
78901;SDS011;70441;44.758;37.686;2023-07-13T02:52:26;23.90;;;8.75;;
78901;SDS011;70441;44.758;37.686;2023-07-13T02:53:28;17.40;;;9.45;;
78901;SDS011;70441;44.758;37.686;2023-07-13T02:54:29;11.38;;;8.60;;
78901;SDS011;70441;44.758;37.686;2023-07-13T02:55:30;13.85;;;8.77;;
78901;SDS011;70441;44.758;37.686;2023-07-13T02:56:37;13.55;;;9.10;;
78901;SDS011;70441;44.758;37.686;2023-07-13T02:57:40;12.38;;;8.18;;
78901;SDS011;70441;44.758;37.686;2023-07-13T02:58:41;11.77;;;8.60;;
78901;SDS011;70441;44.758;37.686;2023-07-13T02:59:43;13.40;;;9.10;;
78901;SDS011;70441;44.758;37.686;2023-07-13T03:00:45;12.75;;;8.38;;
78901;SDS011;70441;44.758;37.686;2023-07-13T03:01:47;13.80;;;10.25;;
78901;SDS011;70441;44.758;37.686;2023-07-13T03:02:48;12.60;;;8.20;;
78901;SDS011;70441;44.758;37.686;2023-07-13T03:03:50;11.90;;;8.05;;
78901;SDS011;70441;44.758;37.686;2023-07-13T03:04:54;12.43;;;8.65;;
78901;SDS011;70441;44.758;37.686;2023-07-13T03:06:00;11.20;;;6.93;;
78901;SDS011;70441;44.758;37.686;2023-07-13T03:07:10;11.05;;;7.75;;
78901;SDS011;70441;44.758;37.686;2023-07-13T03:08:12;12.93;;;8.73;;
78901;SDS011;70441;44.758;37.686;2023-07-13T03:09:15;12.48;;;7.53;;
78901;SDS011;70441;44.758;37.686;2023-07-13T03:10:22;14.30;;;8.75;;
78901;SDS011;70441;44.758;37.686;2023-07-13T03:11:27;12.00;;;7.40;;
78901;SDS011;70441;44.758;37.686;2023-07-13T03:12:36;9.38;;;7.03;;
78901;SDS011;70441;44.758;37.686;2023-07-13T03:13:41;11.23;;;7.35;;
78901;SDS011;70441;44.758;37.686;2023-07-13T03:14:43;12.93;;;6.80;;
78901;SDS011;70441;44.758;37.686;2023-07-13T03:15:49;13.63;;;6.70;;
78901;SDS011;70441;44.758;37.686;2023-07-13T03:16:51;13.20;;;7.07;;
78901;SDS011;70441;44.758;37.686;2023-07-13T03:17:53;12.20;;;7.15;;
78901;SDS011;70441;44.758;37.686;2023-07-13T03:18:55;13.18;;;6.93;;
78901;SDS011;70441;44.758;37.686;2023-07-13T03:19:57;17.10;;;6.78;;
78901;SDS011;70441;44.758;37.686;2023-07-13T03:20:58;12.10;;;7.03;;
78901;SDS011;70441;44.758;37.686;2023-07-13T03:22:00;22.40;;;7.93;;
78901;SDS011;70441;44.758;37.686;2023-07-13T03:23:01;23.13;;;7.85;;
78901;SDS011;70441;44.758;37.686;2023-07-13T03:24:04;21.42;;;8.05;;
78901;SDS011;70441;44.758;37.686;2023-07-13T03:25:06;12.68;;;7.10;;
78901;SDS011;70441;44.758;37.686;2023-07-13T03:26:09;14.57;;;7.00;;
78901;SDS011;70441;44.758;37.686;2023-07-13T03:27:15;13.15;;;6.88;;
78901;SDS011;70441;44.758;37.686;2023-07-13T03:28:18;10.70;;;6.47;;
78901;SDS011;70441;44.758;37.686;2023-07-13T03:29:19;11.18;;;6.53;;
78901;SDS011;70441;44.758;37.686;2023-07-13T03:30:21;8.07;;;5.78;;
78901;SDS011;70441;44.758;37.686;2023-07-13T03:31:24;10.13;;;5.97;;
78901;SDS011;70441;44.758;37.686;2023-07-13T03:32:27;14.68;;;6.78;;
78901;SDS011;70441;44.758;37.686;2023-07-13T03:33:28;11.95;;;6.45;;
78901;SDS011;70441;44.758;37.686;2023-07-13T03:34:35;10.57;;;6.18;;
78901;SDS011;70441;44.758;37.686;2023-07-13T03:35:39;9.45;;;6.05;;
78901;SDS011;70441;44.758;37.686;2023-07-13T03:36:42;11.23;;;5.93;;
78901;SDS011;70441;44.758;37.686;2023-07-13T03:37:46;10.00;;;5.20;;
78901;SDS011;70441;44.758;37.686;2023-07-13T03:38:53;9.48;;;5.57;;
78901;SDS011;70441;44.758;37.686;2023-07-13T03:39:59;7.63;;;5.40;;
78901;SDS011;70441;44.758;37.686;2023-07-13T03:41:06;13.85;;;5.75;;
78901;SDS011;70441;44.758;37.686;2023-07-13T03:42:07;8.32;;;5.50;;
78901;SDS011;70441;44.758;37.686;2023-07-13T03:43:09;10.57;;;5.13;;
78901;SDS011;70441;44.758;37.686;2023-07-13T03:44:11;9.75;;;5.60;;
78901;SDS011;70441;44.758;37.686;2023-07-13T03:46:14;11.15;;;5.60;;
78901;SDS011;70441;44.758;37.686;2023-07-13T03:47:16;8.07;;;5.30;;
78901;SDS011;70441;44.758;37.686;2023-07-13T03:48:19;12.13;;;6.05;;
78901;SDS011;70441;44.758;37.686;2023-07-13T03:49:25;11.05;;;6.47;;
78901;SDS011;70441;44.758;37.686;2023-07-13T03:50:28;10.60;;;6.57;;
78901;SDS011;70441;44.758;37.686;2023-07-13T03:51:30;12.20;;;6.30;;
78901;SDS011;70441;44.758;37.686;2023-07-13T03:52:32;11.57;;;6.30;;
78901;SDS011;70441;44.758;37.686;2023-07-13T03:53:35;11.65;;;6.55;;
78901;SDS011;70441;44.758;37.686;2023-07-13T03:54:39;11.70;;;7.20;;
78901;SDS011;70441;44.758;37.686;2023-07-13T03:56:42;16.13;;;6.35;;
78901;SDS011;70441;44.758;37.686;2023-07-13T03:57:44;8.80;;;5.70;;
78901;SDS011;70441;44.758;37.686;2023-07-13T03:58:46;10.75;;;6.00;;
78901;SDS011;70441;44.758;37.686;2023-07-13T03:59:51;11.60;;;6.10;;
78901;SDS011;70441;44.758;37.686;2023-07-13T04:00:53;10.05;;;6.20;;
78901;SDS011;70441;44.758;37.686;2023-07-13T04:01:55;15.50;;;6.60;;
78901;SDS011;70441;44.758;37.686;2023-07-13T04:02:57;14.70;;;6.15;;
78901;SDS011;70441;44.758;37.686;2023-07-13T04:03:58;10.30;;;5.38;;
78901;SDS011;70441;44.758;37.686;2023-07-13T04:05:00;8.07;;;5.15;;
78901;SDS011;70441;44.758;37.686;2023-07-13T04:06:02;13.63;;;6.35;;
78901;SDS011;70441;44.758;37.686;2023-07-13T04:07:04;8.55;;;5.40;;
78901;SDS011;70441;44.758;37.686;2023-07-13T04:08:06;9.82;;;5.47;;
78901;SDS011;70441;44.758;37.686;2023-07-13T04:09:08;9.98;;;5.63;;
78901;SDS011;70441;44.758;37.686;2023-07-13T04:10:09;8.75;;;5.43;;
78901;SDS011;70441;44.758;37.686;2023-07-13T04:11:11;14.13;;;6.03;;
78901;SDS011;70441;44.758;37.686;2023-07-13T04:12:12;8.40;;;5.32;;
78901;SDS011;70441;44.758;37.686;2023-07-13T04:13:13;10.70;;;5.53;;
78901;SDS011;70441;44.758;37.686;2023-07-13T04:15:17;12.45;;;5.63;;
78901;SDS011;70441;44.758;37.686;2023-07-13T04:16:18;7.38;;;5.68;;
78901;SDS011;70441;44.758;37.686;2023-07-13T04:18:21;17.58;;;6.10;;
78901;SDS011;70441;44.758;37.686;2023-07-13T04:19:23;8.65;;;5.60;;
78901;SDS011;70441;44.758;37.686;2023-07-13T04:20:25;8.07;;;4.97;;
78901;SDS011;70441;44.758;37.686;2023-07-13T04:21:27;9.05;;;4.75;;
78901;SDS011;70441;44.758;37.686;2023-07-13T04:22:29;16.88;;;6.30;;
78901;SDS011;70441;44.758;37.686;2023-07-13T04:23:31;8.25;;;5.57;;
78901;SDS011;70441;44.758;37.686;2023-07-13T04:24:32;13.43;;;5.93;;
78901;SDS011;70441;44.758;37.686;2023-07-13T04:25:33;10.85;;;5.68;;
78901;SDS011;70441;44.758;37.686;2023-07-13T04:26:35;13.93;;;6.13;;
78901;SDS011;70441;44.758;37.686;2023-07-13T04:27:42;14.52;;;5.82;;
78901;SDS011;70441;44.758;37.686;2023-07-13T04:28:43;32.83;;;9.65;;
78901;SDS011;70441;44.758;37.686;2023-07-13T04:29:44;12.82;;;7.05;;
78901;SDS011;70441;44.758;37.686;2023-07-13T04:30:46;14.25;;;6.22;;
78901;SDS011;70441;44.758;37.686;2023-07-13T04:31:47;12.60;;;6.43;;
78901;SDS011;70441;44.758;37.686;2023-07-13T04:32:49;18.33;;;6.30;;
78901;SDS011;70441;44.758;37.686;2023-07-13T04:33:52;11.55;;;6.97;;
78901;SDS011;70441;44.758;37.686;2023-07-13T04:34:54;15.50;;;7.13;;
78901;SDS011;70441;44.758;37.686;2023-07-13T04:35:56;19.27;;;6.88;;
78901;SDS011;70441;44.758;37.686;2023-07-13T04:36:58;7.30;;;5.28;;
78901;SDS011;70441;44.758;37.686;2023-07-13T04:37:59;9.30;;;4.85;;
78901;SDS011;70441;44.758;37.686;2023-07-13T04:39:07;9.10;;;5.55;;
78901;SDS011;70441;44.758;37.686;2023-07-13T04:40:08;14.32;;;5.90;;
78901;SDS011;70441;44.758;37.686;2023-07-13T04:41:13;10.20;;;6.00;;
78901;SDS011;70441;44.758;37.686;2023-07-13T04:42:15;11.52;;;5.32;;
78901;SDS011;70441;44.758;37.686;2023-07-13T04:43:17;14.77;;;4.78;;
78901;SDS011;70441;44.758;37.686;2023-07-13T04:44:19;9.05;;;5.03;;
78901;SDS011;70441;44.758;37.686;2023-07-13T04:45:20;9.30;;;5.10;;
78901;SDS011;70441;44.758;37.686;2023-07-13T04:46:22;10.40;;;5.07;;
78901;SDS011;70441;44.758;37.686;2023-07-13T04:47:24;11.30;;;5.75;;
78901;SDS011;70441;44.758;37.686;2023-07-13T04:48:30;8.73;;;5.25;;
78901;SDS011;70441;44.758;37.686;2023-07-13T04:49:32;14.63;;;5.75;;
78901;SDS011;70441;44.758;37.686;2023-07-13T04:50:35;9.95;;;4.90;;
78901;SDS011;70441;44.758;37.686;2023-07-13T04:51:37;11.52;;;5.82;;
78901;SDS011;70441;44.758;37.686;2023-07-13T04:52:39;10.98;;;5.88;;
78901;SDS011;70441;44.758;37.686;2023-07-13T04:53:40;22.02;;;6.22;;
78901;SDS011;70441;44.758;37.686;2023-07-13T04:54:41;16.88;;;5.90;;
78901;SDS011;70441;44.758;37.686;2023-07-13T04:55:43;11.57;;;5.32;;
78901;SDS011;70441;44.758;37.686;2023-07-13T04:56:44;8.73;;;5.57;;
78901;SDS011;70441;44.758;37.686;2023-07-13T04:57:46;12.50;;;6.85;;
78901;SDS011;70441;44.758;37.686;2023-07-13T04:59:49;19.45;;;6.38;;
78901;SDS011;70441;44.758;37.686;2023-07-13T05:00:50;8.48;;;5.78;;
78901;SDS011;70441;44.758;37.686;2023-07-13T05:01:52;8.57;;;5.78;;
78901;SDS011;70441;44.758;37.686;2023-07-13T05:02:54;22.73;;;7.88;;
78901;SDS011;70441;44.758;37.686;2023-07-13T05:03:56;20.13;;;7.25;;
78901;SDS011;70441;44.758;37.686;2023-07-13T05:05:00;12.43;;;6.25;;
78901;SDS011;70441;44.758;37.686;2023-07-13T05:06:05;9.40;;;5.68;;
78901;SDS011;70441;44.758;37.686;2023-07-13T05:07:07;13.20;;;7.95;;
78901;SDS011;70441;44.758;37.686;2023-07-13T05:08:08;9.57;;;5.38;;
78901;SDS011;70441;44.758;37.686;2023-07-13T05:09:10;16.08;;;7.15;;
78901;SDS011;70441;44.758;37.686;2023-07-13T05:10:13;17.05;;;6.18;;
78901;SDS011;70441;44.758;37.686;2023-07-13T05:11:20;9.48;;;5.25;;
78901;SDS011;70441;44.758;37.686;2023-07-13T05:12:21;16.08;;;6.28;;
78901;SDS011;70441;44.758;37.686;2023-07-13T05:13:22;14.57;;;5.35;;
78901;SDS011;70441;44.758;37.686;2023-07-13T05:14:24;35.83;;;8.13;;
78901;SDS011;70441;44.758;37.686;2023-07-13T05:15:26;13.75;;;6.13;;
78901;SDS011;70441;44.758;37.686;2023-07-13T05:16:27;9.95;;;5.90;;
78901;SDS011;70441;44.758;37.686;2023-07-13T05:17:29;13.57;;;6.97;;
78901;SDS011;70441;44.758;37.686;2023-07-13T05:18:30;10.20;;;5.93;;
78901;SDS011;70441;44.758;37.686;2023-07-13T05:19:37;29.38;;;7.25;;
78901;SDS011;70441;44.758;37.686;2023-07-13T05:20:38;13.02;;;7.07;;
78901;SDS011;70441;44.758;37.686;2023-07-13T05:21:45;17.00;;;6.53;;
78901;SDS011;70441;44.758;37.686;2023-07-13T05:22:47;13.55;;;6.25;;
78901;SDS011;70441;44.758;37.686;2023-07-13T05:23:49;12.98;;;6.43;;
78901;SDS011;70441;44.758;37.686;2023-07-13T05:25:52;21.85;;;7.55;;
78901;SDS011;70441;44.758;37.686;2023-07-13T05:26:53;18.95;;;6.97;;
78901;SDS011;70441;44.758;37.686;2023-07-13T05:27:54;9.73;;;5.72;;
78901;SDS011;70441;44.758;37.686;2023-07-13T05:29:01;21.67;;;6.28;;
78901;SDS011;70441;44.758;37.686;2023-07-13T05:30:02;11.80;;;5.72;;
78901;SDS011;70441;44.758;37.686;2023-07-13T05:31:07;9.43;;;4.85;;
78901;SDS011;70441;44.758;37.686;2023-07-13T05:32:09;17.13;;;6.05;;
78901;SDS011;70441;44.758;37.686;2023-07-13T05:33:11;10.13;;;5.18;;
78901;SDS011;70441;44.758;37.686;2023-07-13T05:34:12;16.73;;;6.85;;
78901;SDS011;70441;44.758;37.686;2023-07-13T05:35:14;14.05;;;6.07;;
78901;SDS011;70441;44.758;37.686;2023-07-13T05:36:15;8.38;;;5.10;;
78901;SDS011;70441;44.758;37.686;2023-07-13T05:37:16;9.60;;;5.40;;
78901;SDS011;70441;44.758;37.686;2023-07-13T05:38:18;24.92;;;6.82;;
78901;SDS011;70441;44.758;37.686;2023-07-13T05:39:19;13.07;;;6.43;;
78901;SDS011;70441;44.758;37.686;2023-07-13T05:40:20;8.35;;;5.60;;
78901;SDS011;70441;44.758;37.686;2023-07-13T05:41:21;10.20;;;5.13;;
78901;SDS011;70441;44.758;37.686;2023-07-13T05:42:23;11.82;;;5.68;;
78901;SDS011;70441;44.758;37.686;2023-07-13T05:43:24;11.60;;;5.55;;
78901;SDS011;70441;44.758;37.686;2023-07-13T05:44:26;9.73;;;5.20;;
78901;SDS011;70441;44.758;37.686;2023-07-13T05:45:27;7.88;;;5.40;;
78901;SDS011;70441;44.758;37.686;2023-07-13T05:46:29;10.68;;;5.05;;
78901;SDS011;70441;44.758;37.686;2023-07-13T05:47:30;10.70;;;4.75;;
78901;SDS011;70441;44.758;37.686;2023-07-13T05:48:31;10.82;;;6.78;;
78901;SDS011;70441;44.758;37.686;2023-07-13T05:49:33;8.50;;;4.85;;
78901;SDS011;70441;44.758;37.686;2023-07-13T05:50:34;28.05;;;6.80;;
78901;SDS011;70441;44.758;37.686;2023-07-13T05:51:36;20.85;;;6.75;;
78901;SDS011;70441;44.758;37.686;2023-07-13T05:52:38;8.68;;;4.47;;
78901;SDS011;70441;44.758;37.686;2023-07-13T05:53:39;8.88;;;4.97;;
78901;SDS011;70441;44.758;37.686;2023-07-13T05:54:41;9.05;;;5.15;;
78901;SDS011;70441;44.758;37.686;2023-07-13T05:55:42;11.82;;;4.68;;
78901;SDS011;70441;44.758;37.686;2023-07-13T05:56:45;10.07;;;5.00;;
78901;SDS011;70441;44.758;37.686;2023-07-13T05:57:46;12.45;;;5.22;;
78901;SDS011;70441;44.758;37.686;2023-07-13T05:58:48;8.52;;;5.35;;
78901;SDS011;70441;44.758;37.686;2023-07-13T05:59:49;8.13;;;4.50;;
78901;SDS011;70441;44.758;37.686;2023-07-13T06:00:58;8.43;;;4.80;;
78901;SDS011;70441;44.758;37.686;2023-07-13T06:02:05;10.07;;;4.82;;
78901;SDS011;70441;44.758;37.686;2023-07-13T06:03:10;7.85;;;4.65;;
78901;SDS011;70441;44.758;37.686;2023-07-13T06:04:11;15.40;;;5.85;;
78901;SDS011;70441;44.758;37.686;2023-07-13T06:05:13;22.38;;;5.95;;
78901;SDS011;70441;44.758;37.686;2023-07-13T06:06:14;8.60;;;4.40;;
78901;SDS011;70441;44.758;37.686;2023-07-13T06:07:17;25.65;;;7.05;;
78901;SDS011;70441;44.758;37.686;2023-07-13T06:08:18;7.60;;;4.78;;
78901;SDS011;70441;44.758;37.686;2023-07-13T06:09:19;7.88;;;4.93;;
78901;SDS011;70441;44.758;37.686;2023-07-13T06:10:21;15.27;;;5.47;;
78901;SDS011;70441;44.758;37.686;2023-07-13T06:11:25;11.90;;;5.40;;
78901;SDS011;70441;44.758;37.686;2023-07-13T06:12:28;8.20;;;4.53;;
78901;SDS011;70441;44.758;37.686;2023-07-13T06:13:29;8.20;;;4.40;;
78901;SDS011;70441;44.758;37.686;2023-07-13T06:14:31;11.60;;;5.32;;
78901;SDS011;70441;44.758;37.686;2023-07-13T06:15:32;10.15;;;4.75;;
78901;SDS011;70441;44.758;37.686;2023-07-13T06:16:34;8.55;;;4.57;;
78901;SDS011;70441;44.758;37.686;2023-07-13T06:18:37;10.20;;;5.10;;
78901;SDS011;70441;44.758;37.686;2023-07-13T06:19:40;7.35;;;4.25;;
78901;SDS011;70441;44.758;37.686;2023-07-13T06:20:41;9.43;;;4.78;;
78901;SDS011;70441;44.758;37.686;2023-07-13T06:21:43;7.65;;;3.72;;
78901;SDS011;70441;44.758;37.686;2023-07-13T06:22:44;20.45;;;6.95;;